createdAt,value
2019-05-20T00:00:43.666Z,8.20
2019-05-20T00:03:17.550Z,7.63
2019-05-20T00:05:49.347Z,8.07
2019-05-20T00:08:22.613Z,7.27
2019-05-20T00:10:54.331Z,8.47
2019-05-20T00:13:26.077Z,7.37
2019-05-20T00:15:57.818Z,7.83
2019-05-20T00:18:29.559Z,8.37
2019-05-20T00:21:01.286Z,8.37
2019-05-20T00:23:33.140Z,7.17
2019-05-20T00:26:05.131Z,8.13
2019-05-20T00:28:36.989Z,7.70
2019-05-20T00:31:08.722Z,8.10
2019-05-20T00:33:41.966Z,8.03
2019-05-20T00:36:13.703Z,8.10
2019-05-20T00:38:47.665Z,8.10
2019-05-20T00:41:19.421Z,8.37
2019-05-20T00:43:52.065Z,8.73
2019-05-20T00:46:24.466Z,7.80
2019-05-20T00:48:56.220Z,7.00
2019-05-20T00:51:27.945Z,7.43
2019-05-20T00:54:00.068Z,8.30
2019-05-20T00:56:31.799Z,8.33
2019-05-20T00:59:03.555Z,7.50
2019-05-20T01:01:35.297Z,9.07
2019-05-20T01:04:07.051Z,8.60
2019-05-20T01:06:38.787Z,8.47
2019-05-20T01:09:10.400Z,8.83
2019-05-20T01:11:42.032Z,7.53
2019-05-20T01:14:13.770Z,8.40
2019-05-20T01:16:45.509Z,7.23
2019-05-20T01:19:17.364Z,7.53
2019-05-20T01:21:49.093Z,8.13
2019-05-20T01:24:20.883Z,8.93
2019-05-20T01:26:52.615Z,9.90
2019-05-20T01:29:24.377Z,9.67
2019-05-20T01:31:56.106Z,8.87
2019-05-20T01:34:27.868Z,10.33
2019-05-20T01:36:59.605Z,9.53
2019-05-20T01:39:31.418Z,10.93
2019-05-20T01:42:03.193Z,9.60
2019-05-20T01:44:34.933Z,10.73
2019-05-20T01:47:06.674Z,10.93
2019-05-20T01:49:38.928Z,11.43
2019-05-20T01:52:10.779Z,11.70
2019-05-20T01:54:42.539Z,11.57
2019-05-20T01:57:14.284Z,10.83
2019-05-20T01:59:46.036Z,10.57
2019-05-20T02:02:17.784Z,10.57
2019-05-20T02:04:49.650Z,11.70
2019-05-20T02:07:21.404Z,12.20
2019-05-20T02:09:53.172Z,11.33
2019-05-20T02:12:24.830Z,10.17
2019-05-20T02:14:58.328Z,10.00
2019-05-20T02:17:30.261Z,10.53
2019-05-20T02:20:02.037Z,9.57
2019-05-20T02:22:34.333Z,10.53
2019-05-20T02:25:07.838Z,10.80
2019-05-20T02:27:39.683Z,11.83
2019-05-20T02:30:12.648Z,11.53
2019-05-20T02:32:44.199Z,10.67
2019-05-20T02:35:16.228Z,12.17
2019-05-20T02:37:47.982Z,11.93
2019-05-20T02:40:20.020Z,11.67
2019-05-20T02:42:52.066Z,12.23
2019-05-20T02:45:25.007Z,12.67
2019-05-20T02:47:56.853Z,12.30
2019-05-20T02:50:28.784Z,11.43
2019-05-20T02:53:00.795Z,12.53
2019-05-20T02:55:32.449Z,13.00
2019-05-20T02:58:04.185Z,13.23
2019-05-20T03:00:35.946Z,12.73
2019-05-20T03:03:07.996Z,10.83
2019-05-20T03:05:39.770Z,13.63
2019-05-20T03:08:11.558Z,16.37
2019-05-20T03:10:43.742Z,14.60
2019-05-20T03:13:15.382Z,15.10
2019-05-20T03:15:49.053Z,13.57
2019-05-20T03:18:24.108Z,13.43
2019-05-20T03:20:55.887Z,13.93
2019-05-20T03:23:27.700Z,13.33
2019-05-20T03:26:00.415Z,12.43
2019-05-20T03:28:32.935Z,13.83
2019-05-20T03:31:04.488Z,12.37
2019-05-20T03:33:36.219Z,12.33
2019-05-20T03:36:08.614Z,12.77
2019-05-20T03:38:40.338Z,13.73
2019-05-20T03:41:14.869Z,15.30
2019-05-20T03:43:46.596Z,14.77
2019-05-20T03:46:21.603Z,14.37
2019-05-20T03:48:53.534Z,15.37
2019-05-20T03:51:27.519Z,15.17
2019-05-20T03:53:59.600Z,15.07
2019-05-20T03:56:31.248Z,16.00
2019-05-20T03:59:02.981Z,15.83
2019-05-20T04:01:34.733Z,17.63
2019-05-20T04:04:06.474Z,16.33
2019-05-20T04:06:38.245Z,16.00
2019-05-20T04:09:09.965Z,13.97
2019-05-20T04:11:41.834Z,14.93
2019-05-20T04:14:13.562Z,14.93
2019-05-20T04:16:45.321Z,14.87
2019-05-20T04:19:17.084Z,14.73
2019-05-20T04:21:48.828Z,14.47
2019-05-20T04:24:21.197Z,15.53
2019-05-20T04:27:00.161Z,15.00
2019-05-20T04:29:32.463Z,14.30
2019-05-20T04:32:04.213Z,13.70
2019-05-20T04:34:35.930Z,13.80
2019-05-20T04:37:09.354Z,14.10
2019-05-20T04:39:40.981Z,13.47
2019-05-20T04:42:12.735Z,14.50
2019-05-20T04:44:44.469Z,13.13
2019-05-20T04:47:16.223Z,13.17
2019-05-20T04:49:47.965Z,12.77
2019-05-20T04:52:19.714Z,11.57
2019-05-20T04:54:51.545Z,12.97
2019-05-20T04:57:23.300Z,12.87
2019-05-20T04:59:55.054Z,11.80
2019-05-20T05:02:26.801Z,12.53
2019-05-20T05:04:59.799Z,11.80
2019-05-20T05:07:31.570Z,11.43
2019-05-20T05:10:04.072Z,10.27
2019-05-20T05:12:36.040Z,10.70
2019-05-20T05:15:10.728Z,11.00
2019-05-20T05:17:42.577Z,10.03
2019-05-20T05:20:18.485Z,11.87
2019-05-20T05:22:49.771Z,9.83
2019-05-20T05:25:21.503Z,10.07
2019-05-20T05:27:53.269Z,10.57
2019-05-20T05:30:25.011Z,10.60
2019-05-20T05:32:57.910Z,10.03
2019-05-20T05:35:34.028Z,12.17
2019-05-20T05:38:06.620Z,12.33
2019-05-20T05:40:39.188Z,12.67
2019-05-20T05:43:10.961Z,12.33
2019-05-20T05:45:42.988Z,12.50
2019-05-20T05:48:15.654Z,12.13
2019-05-20T05:50:47.411Z,10.40
2019-05-20T05:53:19.169Z,12.03
2019-05-20T05:55:50.966Z,12.50
2019-05-20T05:58:25.605Z,12.47
2019-05-20T06:00:58.839Z,11.50
2019-05-20T06:03:30.614Z,12.83
2019-05-20T06:06:12.045Z,12.87
2019-05-20T06:08:39.997Z,13.67
2019-05-20T06:11:23.363Z,12.13
2019-05-20T06:13:59.669Z,12.50
2019-05-20T06:16:36.352Z,12.40
2019-05-20T06:19:05.494Z,12.40
2019-05-20T06:21:40.214Z,13.10
2019-05-20T06:24:16.213Z,12.23
2019-05-20T06:26:50.363Z,12.87
2019-05-20T06:29:22.986Z,12.70
2019-05-20T06:31:55.858Z,12.87
2019-05-20T06:34:35.274Z,13.73
2019-05-20T06:37:10.681Z,13.57
2019-05-20T06:39:44.077Z,13.63
2019-05-20T06:42:18.315Z,13.50
2019-05-20T06:44:53.919Z,12.73
2019-05-20T06:47:27.513Z,11.93
2019-05-20T06:50:00.150Z,13.43
2019-05-20T06:52:35.783Z,12.97
2019-05-20T06:55:10.510Z,16.17
2019-05-20T06:57:42.257Z,12.90
2019-05-20T07:00:16.570Z,11.87
2019-05-20T07:02:52.002Z,14.27
2019-05-20T07:05:22.724Z,13.60
2019-05-20T07:07:54.467Z,13.17
2019-05-20T07:10:28.737Z,12.77
2019-05-20T07:13:00.465Z,14.17
2019-05-20T07:15:32.294Z,13.43
2019-05-20T07:18:04.308Z,12.40
2019-05-20T07:20:36.040Z,12.17
2019-05-20T07:23:07.780Z,11.57
2019-05-20T07:25:39.647Z,14.13
2019-05-20T07:28:12.441Z,14.03
2019-05-20T07:30:47.489Z,14.77
2019-05-20T07:33:20.412Z,14.87
2019-05-20T07:35:53.586Z,15.67
2019-05-20T07:38:28.094Z,17.67
2019-05-20T07:41:03.029Z,18.00
2019-05-20T07:43:38.356Z,19.40
2019-05-20T07:46:13.846Z,19.80
2019-05-20T07:48:52.756Z,17.47
2019-05-20T07:51:29.055Z,19.33
2019-05-20T07:54:02.253Z,17.73
2019-05-20T07:56:38.968Z,18.77
2019-05-20T07:59:13.558Z,18.63
2019-05-20T08:01:45.442Z,18.97
2019-05-20T08:04:17.091Z,18.53
2019-05-20T08:06:48.976Z,14.37
2019-05-20T08:09:20.649Z,17.50
2019-05-20T08:11:54.090Z,17.70
2019-05-20T08:14:26.383Z,18.03
2019-05-20T08:16:57.952Z,19.43
2019-05-20T08:19:33.922Z,19.53
2019-05-20T08:22:07.982Z,19.93
2019-05-20T08:24:41.425Z,21.80
2019-05-20T08:27:15.018Z,17.17
2019-05-20T08:29:50.309Z,20.77
2019-05-20T08:32:23.397Z,19.87
2019-05-20T08:34:56.613Z,21.27
2019-05-20T08:37:44.347Z,21.10
2019-05-20T08:40:03.414Z,22.73
2019-05-20T08:42:35.282Z,24.03
2019-05-20T08:45:08.862Z,23.83
2019-05-20T08:47:40.724Z,23.80
2019-05-20T08:50:16.203Z,24.07
2019-05-20T08:52:48.742Z,20.87
2019-05-20T08:55:20.568Z,22.57
2019-05-20T08:57:52.711Z,20.53
2019-05-20T09:00:25.873Z,21.77
2019-05-20T09:02:57.735Z,21.33
2019-05-20T09:05:29.486Z,21.70
2019-05-20T09:08:03.518Z,21.67
2019-05-20T09:10:35.282Z,19.90
2019-05-20T09:13:06.835Z,21.87
2019-05-20T09:15:38.881Z,23.97
2019-05-20T09:18:10.749Z,22.77
2019-05-20T09:20:42.478Z,22.33
2019-05-20T09:23:14.563Z,22.80
2019-05-20T09:25:47.678Z,22.43
2019-05-20T09:28:21.828Z,22.23
2019-05-20T09:30:53.754Z,18.87
2019-05-20T09:33:29.881Z,21.17
2019-05-20T09:36:07.312Z,21.03
2019-05-20T09:38:42.155Z,24.23
2019-05-20T09:41:14.330Z,21.00
2019-05-20T09:43:46.172Z,24.70
2019-05-20T09:46:17.796Z,24.30
2019-05-20T09:48:49.635Z,24.50
2019-05-20T09:51:21.370Z,24.47
2019-05-20T09:53:59.852Z,24.80
2019-05-20T09:56:38.075Z,23.47
2019-05-20T09:59:09.824Z,25.83
2019-05-20T10:01:41.562Z,24.70
2019-05-20T10:04:16.462Z,25.90
2019-05-20T10:06:49.290Z,23.97
2019-05-20T10:09:23.405Z,25.50
2019-05-20T10:11:55.052Z,24.33
2019-05-20T10:14:26.927Z,24.90
2019-05-20T10:17:01.781Z,24.60
2019-05-20T10:19:34.077Z,25.27
2019-05-20T10:22:07.338Z,25.23
2019-05-20T10:24:39.106Z,25.80
2019-05-20T10:27:10.844Z,26.57
2019-05-20T10:29:44.070Z,24.87
2019-05-20T10:32:15.863Z,24.37
2019-05-20T10:34:49.255Z,26.50
2019-05-20T10:37:21.164Z,26.10
2019-05-20T10:39:53.011Z,26.70
2019-05-20T10:42:24.746Z,27.70
2019-05-20T10:44:56.598Z,27.83
2019-05-20T10:47:28.333Z,27.93
2019-05-20T10:50:00.136Z,26.20
2019-05-20T10:52:31.861Z,25.70
2019-05-20T10:55:05.049Z,25.00
2019-05-20T10:57:36.966Z,24.20
2019-05-20T11:00:10.185Z,26.70
2019-05-20T11:02:41.722Z,26.13
2019-05-20T11:05:14.019Z,27.43
2019-05-20T11:07:45.748Z,26.60
2019-05-20T11:10:18.470Z,21.17
2019-05-20T11:12:50.288Z,25.70
2019-05-20T11:15:22.364Z,24.80
2019-05-20T11:17:54.063Z,24.60
2019-05-20T11:20:25.935Z,24.97
2019-05-20T11:23:00.902Z,24.77
2019-05-20T11:25:32.046Z,22.73
2019-05-20T11:28:04.214Z,24.87
2019-05-20T11:30:36.057Z,24.10
2019-05-20T11:33:08.874Z,23.03
2019-05-20T11:35:40.456Z,22.90
2019-05-20T11:38:12.290Z,21.67
2019-05-20T11:40:51.568Z,23.43
2019-05-20T11:43:22.977Z,23.57
2019-05-20T11:45:55.809Z,21.17
2019-05-20T11:48:27.726Z,20.60
2019-05-20T11:51:03.613Z,21.93
2019-05-20T11:53:38.990Z,21.50
2019-05-20T11:56:12.130Z,21.60
2019-05-20T11:58:43.959Z,21.73
2019-05-20T12:01:15.715Z,21.93
2019-05-20T12:03:47.910Z,22.53
2019-05-20T12:06:19.577Z,20.90
2019-05-20T12:08:51.325Z,20.63
2019-05-20T12:11:23.046Z,21.00
2019-05-20T12:13:54.792Z,22.00
2019-05-20T12:16:26.651Z,21.27
2019-05-20T12:18:59.702Z,22.47
2019-05-20T12:21:34.619Z,20.93
2019-05-20T12:24:06.141Z,18.83
2019-05-20T12:26:40.169Z,19.43
2019-05-20T12:29:12.521Z,21.33
2019-05-20T12:31:46.180Z,20.93
2019-05-20T12:34:20.552Z,21.47
2019-05-20T12:36:55.228Z,22.00
2019-05-20T12:39:26.937Z,21.17
2019-05-20T12:42:02.728Z,19.57
2019-05-20T12:44:37.341Z,19.93
2019-05-20T12:47:09.195Z,23.63
2019-05-20T12:49:43.983Z,19.73
2019-05-20T12:52:15.743Z,20.70
2019-05-20T12:55:06.215Z,20.50
2019-05-20T12:57:27.286Z,20.60
2019-05-20T12:59:59.169Z,36.93
2019-05-20T13:02:30.779Z,23.67
2019-05-20T13:05:02.657Z,17.33
2019-05-20T13:07:34.520Z,17.33
2019-05-20T13:10:28.197Z,16.20
2019-05-20T13:12:44.618Z,16.73
2019-05-20T13:15:16.767Z,16.93
2019-05-20T13:17:48.425Z,16.63
2019-05-20T13:20:20.455Z,15.77
2019-05-20T13:22:52.620Z,14.90
2019-05-20T13:25:25.593Z,14.50
2019-05-20T13:27:57.356Z,15.57
2019-05-20T13:30:30.629Z,16.37
2019-05-20T13:33:04.545Z,14.80
2019-05-20T13:35:36.236Z,17.77
2019-05-20T13:38:14.650Z,17.20
2019-05-20T13:40:48.849Z,17.00
2019-05-20T13:43:22.498Z,17.77
2019-05-20T13:45:54.336Z,15.70
2019-05-20T13:48:26.089Z,16.33
2019-05-20T13:50:57.850Z,17.80
2019-05-20T13:53:29.704Z,17.17
2019-05-20T13:56:01.336Z,16.70
2019-05-20T13:58:36.399Z,17.77
2019-05-20T14:01:08.017Z,17.90
2019-05-20T14:03:39.741Z,17.83
2019-05-20T14:06:11.490Z,18.13
2019-05-20T14:08:43.834Z,17.07
2019-05-20T14:11:15.577Z,16.40
2019-05-20T14:13:47.413Z,14.40
2019-05-20T14:16:20.067Z,12.03
2019-05-20T14:18:54.203Z,12.23
2019-05-20T14:21:26.247Z,12.40
2019-05-20T14:23:58.053Z,10.77
2019-05-20T14:26:30.362Z,11.27
2019-05-20T14:29:02.428Z,10.57
2019-05-20T14:31:34.946Z,9.47
2019-05-20T14:34:07.813Z,9.53
2019-05-20T14:36:40.443Z,9.60
2019-05-20T14:39:12.991Z,9.80
2019-05-20T14:41:44.516Z,10.70
2019-05-20T14:44:16.458Z,10.13
2019-05-20T14:46:48.268Z,9.97
2019-05-20T14:49:20.783Z,10.13
2019-05-20T14:51:52.699Z,9.83
2019-05-20T14:54:24.422Z,9.23
2019-05-20T14:56:56.143Z,8.90
2019-05-20T14:59:30.435Z,8.03
2019-05-20T15:02:02.263Z,7.70
2019-05-20T15:04:35.019Z,6.87
2019-05-20T15:07:06.936Z,7.13
2019-05-20T15:09:40.235Z,6.20
2019-05-20T15:12:12.255Z,6.03
2019-05-20T15:14:45.824Z,5.63
2019-05-20T15:17:17.674Z,5.40
2019-05-20T15:19:51.822Z,5.10
2019-05-20T15:22:26.846Z,5.03
2019-05-20T15:25:01.895Z,5.20
2019-05-20T15:27:37.586Z,4.93
2019-05-20T15:30:12.878Z,4.40
2019-05-20T15:32:47.983Z,5.50
2019-05-20T15:35:19.725Z,4.70
2019-05-20T15:37:51.404Z,4.97
2019-05-20T15:40:24.547Z,4.17
2019-05-20T15:42:56.841Z,3.80
2019-05-20T15:45:28.772Z,3.90
2019-05-20T15:48:00.979Z,4.37
2019-05-20T15:50:32.861Z,4.50
2019-05-20T15:53:10.979Z,4.47
2019-05-20T15:55:40.206Z,3.93
2019-05-20T15:58:11.852Z,3.17
2019-05-20T16:00:43.586Z,3.20
2019-05-20T16:03:15.452Z,10.67
2019-05-20T16:05:47.171Z,4.70
2019-05-20T16:08:20.234Z,2.40
2019-05-20T16:10:55.080Z,2.73
2019-05-20T16:13:29.735Z,2.90
2019-05-20T16:16:05.030Z,2.80
2019-05-20T16:18:36.726Z,3.70
2019-05-20T16:21:10.535Z,19.83
2019-05-20T16:23:45.427Z,1.80
2019-05-20T16:26:17.473Z,1.60
2019-05-20T16:28:50.662Z,1.50
2019-05-20T16:31:22.560Z,1.90
2019-05-20T16:33:54.414Z,1.60
2019-05-20T16:36:27.166Z,1.90
2019-05-20T16:38:59.197Z,4.00
2019-05-20T16:41:31.658Z,1.93
2019-05-20T16:44:03.762Z,2.00
2019-05-20T16:46:35.550Z,2.77
2019-05-20T16:49:07.449Z,3.67
2019-05-20T16:51:40.587Z,2.97
2019-05-20T16:54:12.574Z,2.10
2019-05-20T16:56:44.242Z,3.10
2019-05-20T16:59:16.582Z,4.27
2019-05-20T17:01:48.288Z,6.70
2019-05-20T17:04:20.525Z,8.50
2019-05-20T17:06:52.633Z,10.50
2019-05-20T17:09:25.043Z,4.30
2019-05-20T17:11:56.688Z,7.20
2019-05-20T17:14:28.640Z,10.80
2019-05-20T17:17:01.415Z,13.93
2019-05-20T17:19:33.047Z,82.90
2019-05-20T17:22:05.540Z,9.30
2019-05-20T17:24:37.278Z,5.27
2019-05-20T17:27:12.808Z,5.40
2019-05-20T17:29:47.993Z,6.10
2019-05-20T17:32:21.561Z,3.70
2019-05-20T17:34:56.717Z,2.87
2019-05-20T17:37:30.923Z,7.53
2019-05-20T17:40:08.327Z,7.70
2019-05-20T17:42:40.103Z,6.33
2019-05-20T17:45:13.862Z,4.97
2019-05-20T17:47:49.590Z,3.03
2019-05-20T17:50:26.089Z,4.17
2019-05-20T17:53:03.793Z,7.17
2019-05-20T17:55:36.632Z,4.40
2019-05-20T17:58:08.279Z,6.13
2019-05-20T18:00:42.711Z,7.90
2019-05-20T18:03:15.688Z,6.87
2019-05-20T18:05:48.634Z,14.37
2019-05-20T18:08:21.084Z,14.27
2019-05-20T18:10:55.473Z,6.23
2019-05-20T18:13:28.039Z,8.40
2019-05-20T18:16:15.018Z,18.10
2019-05-20T18:18:50.117Z,15.37
2019-05-20T18:21:22.560Z,24.83
2019-05-20T18:23:56.724Z,12.40
2019-05-20T18:26:28.484Z,22.17
2019-05-20T18:29:03.831Z,23.83
2019-05-20T18:31:35.531Z,23.70
2019-05-20T18:34:08.065Z,43.97
2019-05-20T18:36:39.821Z,37.47
2019-05-20T18:39:14.075Z,18.40
2019-05-20T18:41:45.993Z,14.13
2019-05-20T18:44:17.873Z,9.73
2019-05-20T18:46:50.715Z,20.53
2019-05-20T18:49:22.748Z,26.17
2019-05-20T18:51:57.192Z,22.20
2019-05-20T18:54:28.934Z,19.43
2019-05-20T18:57:01.584Z,14.73
2019-05-20T18:59:33.366Z,17.67
2019-05-20T19:02:06.010Z,12.53
2019-05-20T19:04:38.692Z,12.03
2019-05-20T19:07:12.654Z,13.40
2019-05-20T19:09:44.457Z,10.87
2019-05-20T19:12:18.520Z,11.93
2019-05-20T19:14:51.764Z,12.07
2019-05-20T19:17:23.658Z,7.97
2019-05-20T19:19:58.419Z,6.83
2019-05-20T19:22:30.653Z,4.90
2019-05-20T19:25:06.636Z,4.57
2019-05-20T19:27:38.491Z,4.60
2019-05-20T19:30:12.796Z,4.13
2019-05-20T19:32:44.552Z,3.73
2019-05-20T19:35:19.613Z,4.07
2019-05-20T19:37:51.876Z,4.47
2019-05-20T19:40:24.004Z,4.80
2019-05-20T19:43:24.505Z,4.37
2019-05-20T19:46:00.626Z,4.97
2019-05-20T19:48:33.353Z,5.03
2019-05-20T19:51:05.829Z,5.10
2019-05-20T19:53:40.524Z,5.63
2019-05-20T19:56:12.559Z,5.80
2019-05-20T19:58:44.543Z,5.73
2019-05-20T20:01:18.079Z,5.83
2019-05-20T20:03:50.030Z,6.63
2019-05-20T20:06:27.607Z,5.97
2019-05-20T20:08:59.543Z,6.10
2019-05-20T20:11:36.355Z,6.40
2019-05-20T20:14:09.590Z,7.03
2019-05-20T20:16:42.666Z,7.40
2019-05-20T20:19:18.416Z,6.90
2019-05-20T20:21:56.664Z,6.63
2019-05-20T20:24:28.422Z,6.77
2019-05-20T20:27:03.895Z,7.03
2019-05-20T20:29:37.322Z,8.70
2019-05-20T20:32:12.763Z,8.10
2019-05-20T20:37:10.450Z,10.53
2019-05-20T20:39:44.348Z,10.63
2019-05-20T20:42:18.281Z,9.83
2019-05-20T20:44:50.491Z,10.57
2019-05-20T20:47:33.576Z,10.70
2019-05-20T20:49:59.170Z,11.63
2019-05-20T20:52:32.552Z,12.70
2019-05-20T20:55:08.539Z,11.40
2019-05-20T20:57:40.426Z,11.30
2019-05-20T21:00:13.951Z,13.83
2019-05-20T21:02:53.383Z,14.77
2019-05-20T21:05:19.948Z,15.17
2019-05-20T21:07:51.923Z,16.00
2019-05-20T21:10:24.006Z,14.20
2019-05-20T21:12:56.350Z,15.93
2019-05-20T21:15:28.138Z,15.13
2019-05-20T21:17:59.933Z,16.47
2019-05-20T21:20:31.737Z,14.83
2019-05-20T21:23:03.408Z,14.83
2019-05-20T21:25:35.210Z,14.77
2019-05-20T21:28:06.920Z,15.13
2019-05-20T21:30:38.815Z,14.63
2019-05-20T21:33:10.905Z,13.20
2019-05-20T21:35:45.317Z,12.83
2019-05-20T21:38:16.190Z,14.13
2019-05-20T21:40:47.872Z,14.00
2019-05-20T21:43:19.714Z,13.40
2019-05-20T21:45:51.718Z,15.70
2019-05-20T21:48:24.041Z,39.13
2019-05-20T21:50:55.996Z,15.13
2019-05-20T21:53:27.957Z,15.13
2019-05-20T21:55:59.813Z,14.20
2019-05-20T21:58:35.621Z,13.47
2019-05-20T22:01:08.501Z,19.63
2019-05-20T22:03:41.011Z,13.00
2019-05-20T22:06:12.978Z,13.80
2019-05-20T22:08:44.960Z,12.30
2019-05-20T22:11:16.789Z,11.53
2019-05-20T22:13:48.421Z,11.83
2019-05-20T22:16:20.261Z,11.50
2019-05-20T22:18:52.213Z,12.33
2019-05-20T22:21:25.587Z,11.73
2019-05-20T22:24:01.940Z,10.83
2019-05-20T22:26:35.259Z,10.50
2019-05-20T22:29:06.992Z,10.93
2019-05-20T22:31:38.748Z,11.17
2019-05-20T22:34:10.519Z,10.80
2019-05-20T22:36:42.291Z,10.83
2019-05-20T22:39:13.928Z,10.70
2019-05-20T22:41:45.786Z,10.10
2019-05-20T22:44:18.756Z,11.17
2019-05-20T22:46:50.428Z,10.70
2019-05-20T22:49:22.364Z,10.07
2019-05-20T22:51:55.841Z,11.37
2019-05-20T22:54:27.602Z,11.30
2019-05-20T22:56:59.353Z,10.63
2019-05-20T22:59:31.090Z,10.60
2019-05-20T23:02:02.855Z,10.73
2019-05-20T23:04:34.586Z,10.63
2019-05-20T23:07:06.430Z,11.43
2019-05-20T23:09:38.178Z,12.03
2019-05-20T23:12:09.928Z,10.80
2019-05-20T23:14:41.667Z,11.17
2019-05-20T23:17:13.419Z,11.77
2019-05-20T23:19:47.082Z,10.07
2019-05-20T23:22:18.795Z,10.83
2019-05-20T23:24:50.531Z,10.57
2019-05-20T23:27:22.286Z,10.23
2019-05-20T23:29:54.395Z,11.97
2019-05-20T23:32:26.226Z,10.23
2019-05-20T23:34:58.139Z,10.13
2019-05-20T23:37:29.977Z,10.07
2019-05-20T23:40:01.730Z,11.03
2019-05-20T23:42:33.484Z,10.27
2019-05-20T23:45:08.761Z,9.90
2019-05-20T23:47:40.473Z,10.03
2019-05-20T23:50:12.936Z,9.53
2019-05-20T23:52:44.837Z,10.10
2019-05-20T23:55:17.962Z,9.53
2019-05-20T23:57:49.795Z,9.17
